createdAt,value
2023-09-16T00:00:00.088Z,94.5
2023-09-16T00:01:00.175Z,94.3
2023-09-16T00:02:00.123Z,93.8
2023-09-16T00:03:00.211Z,93.6
2023-09-16T00:04:00.564Z,93.7
2023-09-16T00:05:00.123Z,94.5
2023-09-16T00:06:00.105Z,94.6
2023-09-16T00:07:00.148Z,94.6
2023-09-16T00:08:00.102Z,94.3
2023-09-16T00:09:00.113Z,93.7
2023-09-16T00:10:00.247Z,94.5
2023-09-16T00:11:00.107Z,95.3
2023-09-16T00:11:59.671Z,95.6
2023-09-16T00:13:00.724Z,96
2023-09-16T00:14:00.105Z,96
2023-09-16T00:15:00.125Z,96.4
2023-09-16T00:16:00.317Z,96.3
2023-09-16T00:17:00.158Z,96.2
2023-09-16T00:18:00.202Z,96.6
2023-09-16T00:19:00.156Z,96.8
2023-09-16T00:20:00.146Z,97.1
2023-09-16T00:21:01.067Z,97.4
2023-09-16T00:22:00.140Z,98.3
2023-09-16T00:23:00.295Z,98.8
2023-09-16T00:24:00.745Z,99.3
2023-09-16T00:25:00.198Z,100
2023-09-16T00:26:00.144Z,100
2023-09-16T00:27:00.608Z,100
2023-09-16T00:28:01.032Z,100
2023-09-16T00:29:00.140Z,100
2023-09-16T00:30:00.140Z,100
2023-09-16T00:31:00.488Z,100
2023-09-16T00:32:00.093Z,100
2023-09-16T00:33:00.132Z,100
2023-09-16T00:34:01.046Z,100
2023-09-16T00:35:00.179Z,100
2023-09-16T00:36:00.171Z,100
2023-09-16T00:37:00.210Z,100
2023-09-16T00:38:00.375Z,100
2023-09-16T00:40:00.579Z,100
2023-09-16T00:41:00.107Z,100
2023-09-16T00:41:59.587Z,100
2023-09-16T00:43:00.198Z,100
2023-09-16T00:44:00.094Z,100
2023-09-16T00:45:00.170Z,100
2023-09-16T00:46:00.201Z,100
2023-09-16T00:47:00.097Z,100
2023-09-16T00:48:00.144Z,100
2023-09-16T00:49:00.129Z,100
2023-09-16T00:50:00.119Z,100
2023-09-16T00:51:00.124Z,100
2023-09-16T00:52:00.127Z,100
2023-09-16T00:53:00.714Z,99.7
2023-09-16T00:54:00.105Z,99.2
2023-09-16T00:55:00.265Z,98.9
2023-09-16T00:56:00.389Z,98.4
2023-09-16T00:57:00.115Z,97.6
2023-09-16T00:58:00.160Z,97.4
2023-09-16T01:00:00.113Z,97
2023-09-16T01:01:00.185Z,97.3
2023-09-16T01:02:00.317Z,96.6
2023-09-16T01:03:00.713Z,96
2023-09-16T01:04:00.208Z,95.8
2023-09-16T01:05:00.994Z,95.3
2023-09-16T01:06:00.132Z,95.3
2023-09-16T01:07:00.154Z,95
2023-09-16T01:08:00.138Z,94.9
2023-09-16T01:09:00.189Z,95
2023-09-16T01:10:00.217Z,95.3
2023-09-16T01:11:00.611Z,95.2
2023-09-16T01:13:00.225Z,95.3
2023-09-16T01:14:00.604Z,94.7
2023-09-16T01:15:00.100Z,94.7
2023-09-16T01:16:00.442Z,94.8
2023-09-16T01:17:00.150Z,94.9
2023-09-16T01:18:00.191Z,95
2023-09-16T01:19:00.320Z,94.6
2023-09-16T01:21:00.206Z,94.4
2023-09-16T01:22:00.200Z,93.8
2023-09-16T01:23:00.109Z,93.5
2023-09-16T01:24:00.144Z,93.5
2023-09-16T01:25:01.044Z,93.1
2023-09-16T01:26:00.125Z,93.6
2023-09-16T01:27:00.132Z,93.6
2023-09-16T01:28:00.802Z,93
2023-09-16T01:29:00.131Z,92.9
2023-09-16T01:30:00.774Z,93.3
2023-09-16T01:31:00.503Z,93.4
2023-09-16T01:32:00.139Z,93.4
2023-09-16T01:33:00.634Z,93.8
2023-09-16T01:34:00.294Z,93.3
2023-09-16T01:35:00.668Z,93
2023-09-16T01:36:00.698Z,93
2023-09-16T01:37:00.153Z,93.1
2023-09-16T01:38:00.837Z,93.6
2023-09-16T01:39:00.138Z,93.7
2023-09-16T01:40:00.212Z,93.7
2023-09-16T01:41:00.121Z,93.6
2023-09-16T01:41:59.852Z,94
2023-09-16T01:43:00.237Z,94.1
2023-09-16T01:44:00.642Z,94.2
2023-09-16T01:45:00.476Z,94
2023-09-16T01:46:00.168Z,93.9
2023-09-16T01:47:00.134Z,93.8
2023-09-16T01:48:00.187Z,93.6
2023-09-16T01:49:00.907Z,93.9
2023-09-16T01:50:00.653Z,94
2023-09-16T01:51:00.741Z,94.4
2023-09-16T01:52:00.218Z,94.3
2023-09-16T01:53:00.747Z,94.4
2023-09-16T01:54:00.135Z,94.3
2023-09-16T01:54:59.770Z,94
2023-09-16T01:56:00.127Z,93.9
2023-09-16T01:57:00.431Z,94.1
2023-09-16T01:58:00.182Z,93.2
2023-09-16T01:59:00.175Z,93.7
2023-09-16T02:00:00.731Z,93.4
2023-09-16T02:01:00.130Z,93.7
2023-09-16T02:02:00.209Z,93.5
2023-09-16T02:03:00.884Z,93.2
2023-09-16T02:04:00.308Z,93.8
2023-09-16T02:05:00.545Z,94
2023-09-16T02:06:00.803Z,94.1
2023-09-16T02:07:00.156Z,93.8
2023-09-16T02:08:00.117Z,94
2023-09-16T02:09:01.064Z,94.1
2023-09-16T02:10:00.543Z,94.4
2023-09-16T02:11:00.835Z,94.6
2023-09-16T02:13:00.182Z,95.6
2023-09-16T02:14:00.714Z,95.5
2023-09-16T02:15:00.198Z,95.4
2023-09-16T02:16:00.184Z,95.8
2023-09-16T02:17:00.122Z,96
2023-09-16T02:18:00.171Z,96.3
2023-09-16T02:19:00.180Z,95.8
2023-09-16T02:20:00.233Z,96.3
2023-09-16T02:21:00.695Z,96
2023-09-16T02:22:00.244Z,96.4
2023-09-16T02:23:00.390Z,96
2023-09-16T02:24:00.143Z,96.4
2023-09-16T02:25:00.796Z,97
2023-09-16T02:26:00.135Z,97
2023-09-16T02:27:00.760Z,97.2
2023-09-16T02:28:00.201Z,96.8
2023-09-16T02:29:00.144Z,96.8
2023-09-16T02:30:00.197Z,96.3
2023-09-16T02:31:00.169Z,96.1
2023-09-16T02:32:00.152Z,96.1
2023-09-16T02:33:00.224Z,96.1
2023-09-16T02:34:00.354Z,96.7
2023-09-16T02:35:00.177Z,96.9
2023-09-16T02:36:00.144Z,96.7
2023-09-16T02:37:00.333Z,97.3
2023-09-16T02:38:00.430Z,97.3
2023-09-16T02:39:00.180Z,96.8
2023-09-16T02:40:00.322Z,96.4
2023-09-16T02:41:00.562Z,96.6
2023-09-16T02:41:59.206Z,96.9
2023-09-16T02:43:00.200Z,97.2
2023-09-16T02:44:00.154Z,96.7
2023-09-16T02:45:00.742Z,96.4
2023-09-16T02:46:00.338Z,96.7
2023-09-16T02:47:00.771Z,96.8
2023-09-16T02:48:00.185Z,97.2
2023-09-16T02:49:00.361Z,97
2023-09-16T02:50:00.229Z,97.2
2023-09-16T02:51:00.165Z,97.2
2023-09-16T02:52:00.914Z,97.4
2023-09-16T02:53:00.129Z,97.3
2023-09-16T02:54:00.299Z,97.6
2023-09-16T02:55:00.276Z,97.9
2023-09-16T02:56:00.702Z,98
2023-09-16T02:58:00.890Z,97.9
2023-09-16T02:59:00.117Z,97.6
2023-09-16T03:00:00.194Z,98
2023-09-16T03:01:00.219Z,97.4
2023-09-16T03:02:00.220Z,97.6
2023-09-16T03:03:00.223Z,97.6
2023-09-16T03:04:00.207Z,98.1
2023-09-16T03:05:00.180Z,97.8
2023-09-16T03:06:00.199Z,97.6
2023-09-16T03:07:00.166Z,97.5
2023-09-16T03:08:00.132Z,97.7
2023-09-16T03:09:00.635Z,98.2
2023-09-16T03:10:00.264Z,98.7
2023-09-16T03:11:00.431Z,98.6
2023-09-16T03:13:00.157Z,98
2023-09-16T03:14:00.186Z,97.8
2023-09-16T03:15:00.182Z,97.8
2023-09-16T03:16:00.197Z,97.6
2023-09-16T03:17:00.272Z,97.4
2023-09-16T03:18:08.351Z,97.4
2023-09-16T03:19:01.081Z,97
2023-09-16T03:20:00.647Z,97.6
2023-09-16T03:21:00.211Z,98
2023-09-16T03:22:00.541Z,98
2023-09-16T03:23:00.342Z,97.6
2023-09-16T03:24:00.652Z,97.5
2023-09-16T03:25:00.310Z,97.3
2023-09-16T03:26:00.166Z,96.7
2023-09-16T03:27:00.160Z,96.8
2023-09-16T03:28:00.274Z,97.1
2023-09-16T03:29:00.137Z,97.1
2023-09-16T03:30:00.166Z,97.6
2023-09-16T03:31:00.311Z,97.8
2023-09-16T03:32:00.153Z,97.7
2023-09-16T03:33:00.183Z,97.8
2023-09-16T03:34:00.164Z,97.6
2023-09-16T03:35:00.266Z,98
2023-09-16T03:36:00.152Z,97.8
2023-09-16T03:37:00.167Z,98
2023-09-16T03:38:00.572Z,98
2023-09-16T03:39:00.159Z,98
2023-09-16T03:40:00.311Z,98.5
2023-09-16T03:41:00.141Z,98.6
2023-09-16T03:41:59.195Z,98.7
2023-09-16T03:43:01.091Z,98.2
2023-09-16T03:44:00.152Z,98
2023-09-16T03:45:00.174Z,97.9
2023-09-16T03:46:00.791Z,97.8
2023-09-16T03:47:01.116Z,98
2023-09-16T03:48:00.236Z,98.2
2023-09-16T03:49:00.866Z,98.2
2023-09-16T03:50:00.221Z,98.5
2023-09-16T03:51:00.924Z,98.4
2023-09-16T03:52:00.511Z,98.8
2023-09-16T03:53:01.780Z,98.7
2023-09-16T03:54:00.431Z,98.7
2023-09-16T03:55:00.234Z,97.9
2023-09-16T03:56:00.799Z,97.8
2023-09-16T03:57:00.120Z,97.2
2023-09-16T03:58:00.178Z,97.3
2023-09-16T03:59:00.154Z,97.3
2023-09-16T04:00:00.471Z,97.3
2023-09-16T04:01:00.279Z,97.7
2023-09-16T04:02:00.231Z,97.2
2023-09-16T04:04:00.823Z,96.7
2023-09-16T04:05:00.180Z,96.3
2023-09-16T04:06:00.343Z,96.1
2023-09-16T04:07:00.161Z,96.1
2023-09-16T04:08:00.185Z,96.3
2023-09-16T04:09:00.378Z,96.2
2023-09-16T04:10:00.526Z,95.7
2023-09-16T04:11:00.170Z,95.9
2023-09-16T04:11:59.838Z,95.8
2023-09-16T04:13:00.187Z,96.4
2023-09-16T04:14:00.158Z,96.5
2023-09-16T04:15:00.600Z,96.6
2023-09-16T04:16:00.151Z,96.3
2023-09-16T04:17:01.076Z,96.7
2023-09-16T04:18:00.607Z,96.9
2023-09-16T04:19:01.061Z,96.8
2023-09-16T04:20:00.172Z,97.3
2023-09-16T04:21:00.156Z,97.7
2023-09-16T04:22:00.580Z,97.9
2023-09-16T04:23:00.167Z,97.8
2023-09-16T04:24:00.161Z,98
2023-09-16T04:26:00.838Z,98.2
2023-09-16T04:27:00.425Z,97.7
2023-09-16T04:28:00.289Z,98.2
2023-09-16T04:29:00.691Z,98.7
2023-09-16T04:30:00.225Z,99
2023-09-16T04:32:01.015Z,99.1
2023-09-16T04:33:00.136Z,99.1
2023-09-16T04:34:00.196Z,98.8
2023-09-16T04:35:00.187Z,99.2
2023-09-16T04:36:00.159Z,99.4
2023-09-16T04:37:00.494Z,99.2
2023-09-16T04:38:00.655Z,99.1
2023-09-16T04:39:00.314Z,99
2023-09-16T04:40:00.977Z,98.7
2023-09-16T04:41:00.208Z,98.2
2023-09-16T04:41:59.821Z,97.9
2023-09-16T04:43:00.194Z,98
2023-09-16T04:44:00.335Z,98.3
2023-09-16T04:45:00.333Z,98.7
2023-09-16T04:46:00.214Z,98.9
2023-09-16T04:47:00.167Z,98.9
2023-09-16T04:48:00.213Z,98.6
2023-09-16T04:50:00.173Z,98
2023-09-16T04:51:00.169Z,98
2023-09-16T04:52:00.175Z,97.7
2023-09-16T04:53:00.144Z,98.1
2023-09-16T04:54:00.158Z,98.3
2023-09-16T04:55:00.180Z,98.1
2023-09-16T04:56:00.151Z,97.8
2023-09-16T04:57:00.133Z,97.8
2023-09-16T04:58:00.218Z,98.7
2023-09-16T04:59:00.166Z,98.4
2023-09-16T05:00:00.221Z,98
2023-09-16T05:01:00.190Z,98
2023-09-16T05:02:00.221Z,97.4
2023-09-16T05:03:00.203Z,97.4
2023-09-16T05:04:00.287Z,96.9
2023-09-16T05:05:00.176Z,97.1
2023-09-16T05:06:00.158Z,96.7
2023-09-16T05:07:00.206Z,97.1
2023-09-16T05:08:00.172Z,97
2023-09-16T05:09:00.832Z,97.2
2023-09-16T05:10:00.454Z,97.1
2023-09-16T05:11:00.145Z,97.1
2023-09-16T05:11:59.256Z,96.9
2023-09-16T05:13:00.789Z,97
2023-09-16T05:14:00.363Z,97.5
2023-09-16T05:15:00.197Z,98.1
2023-09-16T05:16:00.538Z,97.2
2023-09-16T05:17:00.216Z,97
2023-09-16T05:18:00.580Z,97.1
2023-09-16T05:19:00.183Z,96.9
2023-09-16T05:20:00.528Z,96.7
2023-09-16T05:21:00.628Z,96.6
2023-09-16T05:22:00.215Z,96.6
2023-09-16T05:23:00.173Z,96.7
2023-09-16T05:24:00.152Z,96.3
2023-09-16T05:25:00.269Z,96
2023-09-16T05:26:00.162Z,96.3
2023-09-16T05:27:00.283Z,96.3
2023-09-16T05:28:00.561Z,95.8
2023-09-16T05:29:00.174Z,95.7
2023-09-16T05:30:00.617Z,95.7
2023-09-16T05:31:00.171Z,95.9
2023-09-16T05:32:00.643Z,96.6
2023-09-16T05:33:00.202Z,96.4
2023-09-16T05:34:00.502Z,96.3
2023-09-16T05:35:00.209Z,96
2023-09-16T05:36:00.152Z,96
2023-09-16T05:37:00.647Z,96.3
2023-09-16T05:38:00.916Z,96.3
2023-09-16T05:39:00.159Z,96
2023-09-16T05:40:00.261Z,96.4
2023-09-16T05:41:00.176Z,97
2023-09-16T05:43:01.110Z,96.8
2023-09-16T05:44:00.157Z,96.7
2023-09-16T05:45:00.777Z,96.6
2023-09-16T05:46:00.375Z,96.7
2023-09-16T05:47:02.225Z,96.7
2023-09-16T05:49:00.987Z,96.6
2023-09-16T05:50:00.255Z,97
2023-09-16T05:51:00.197Z,97.1
2023-09-16T05:52:00.224Z,97
2023-09-16T05:53:00.156Z,96.4
2023-09-16T05:54:00.194Z,96.2
2023-09-16T05:55:00.781Z,95.8
2023-09-16T05:56:00.734Z,95.5
2023-09-16T05:57:00.194Z,95.3
2023-09-16T05:58:00.732Z,95.1
2023-09-16T05:59:00.167Z,94.6
2023-09-16T06:00:00.250Z,94.4
2023-09-16T06:01:00.166Z,93.7
2023-09-16T06:02:00.222Z,93.4
2023-09-16T06:03:00.240Z,93.3
2023-09-16T06:05:00.514Z,92.6
2023-09-16T06:07:00.237Z,91.6
2023-09-16T06:08:03.108Z,91.9
2023-09-16T06:09:00.200Z,91.5
2023-09-16T06:10:00.302Z,91.1
2023-09-16T06:11:01.819Z,90.9
2023-09-16T06:11:59.369Z,91.1
2023-09-16T06:13:00.573Z,91.1
2023-09-16T06:14:00.199Z,90.4
2023-09-16T06:16:00.325Z,89.9
2023-09-16T06:17:00.608Z,89.6
2023-09-16T06:19:00.212Z,89.5
2023-09-16T06:20:00.202Z,89.3
2023-09-16T06:21:00.158Z,89
2023-09-16T06:22:00.576Z,88.5
2023-09-16T06:23:00.264Z,88.9
2023-09-16T06:24:00.171Z,89
2023-09-16T06:25:00.737Z,88.9
2023-09-16T06:27:00.189Z,88.5
2023-09-16T06:28:00.636Z,88.3
2023-09-16T06:30:00.955Z,88
2023-09-16T06:32:00.637Z,88.1
2023-09-16T06:33:00.345Z,87.7
2023-09-16T06:34:00.634Z,87.3
2023-09-16T06:36:59.266Z,86.9
2023-09-16T06:38:00.704Z,86.4
2023-09-16T06:40:00.410Z,85.9
2023-09-16T06:41:00.182Z,86.2
2023-09-16T06:42:00.152Z,86.1
2023-09-16T06:43:00.200Z,86.5
2023-09-16T06:44:00.793Z,86.1
2023-09-16T06:45:00.219Z,86.3
2023-09-16T06:46:00.266Z,85.7
2023-09-16T06:49:00.224Z,85.7
2023-09-16T06:50:00.170Z,85.7
2023-09-16T06:51:00.205Z,85.6
2023-09-16T06:53:00.956Z,85.4
2023-09-16T06:54:00.590Z,85.2
2023-09-16T06:54:59.293Z,84.2
2023-09-16T06:56:00.683Z,84.1
2023-09-16T06:57:00.194Z,83.8
2023-09-16T07:00:00.255Z,82.9
2023-09-16T07:01:00.276Z,83.2
2023-09-16T07:02:00.856Z,82.8
2023-09-16T07:04:01.031Z,83
2023-09-16T07:05:00.217Z,83.3
2023-09-16T07:06:00.165Z,83.4
2023-09-16T07:07:00.207Z,83.3
2023-09-16T07:08:00.216Z,83.1
2023-09-16T07:09:00.166Z,83.1
2023-09-16T07:10:00.333Z,83.8
2023-09-16T07:11:00.584Z,84.3
2023-09-16T07:11:59.518Z,83.8
2023-09-16T07:13:00.565Z,83.8
2023-09-16T07:14:00.215Z,83.8
2023-09-16T07:15:01.008Z,83.4
2023-09-16T07:18:00.248Z,83
2023-09-16T07:19:00.721Z,83.2
2023-09-16T07:20:00.226Z,83.5
2023-09-16T07:21:00.945Z,84
2023-09-16T07:22:00.863Z,84.4
2023-09-16T07:23:00.207Z,85.3
2023-09-16T07:24:00.748Z,85.1
2023-09-16T07:25:00.341Z,84.9
2023-09-16T07:26:00.956Z,84.7
2023-09-16T07:28:00.850Z,85.1
2023-09-16T07:29:00.212Z,83.4
2023-09-16T07:30:00.468Z,82.7
2023-09-16T07:31:00.226Z,81.9
2023-09-16T07:33:00.230Z,81.5
2023-09-16T07:34:00.223Z,81.8
2023-09-16T07:35:00.211Z,81.4
2023-09-16T07:36:00.195Z,80.1
2023-09-16T07:38:00.175Z,79.7
2023-09-16T07:39:00.500Z,79.7
2023-09-16T07:40:00.377Z,79.8
2023-09-16T07:41:00.571Z,79.4
2023-09-16T07:41:59.241Z,78.7
2023-09-16T07:43:00.292Z,78.7
2023-09-16T07:44:00.193Z,78.9
2023-09-16T07:45:00.191Z,78.8
2023-09-16T07:46:01.061Z,78
2023-09-16T07:47:00.191Z,78.1
2023-09-16T07:48:00.232Z,77.3
2023-09-16T07:49:00.459Z,76.7
2023-09-16T07:50:00.801Z,76.5
2023-09-16T07:52:00.201Z,76.6
2023-09-16T07:53:00.191Z,76.4
2023-09-16T07:54:00.429Z,75.8
2023-09-16T07:55:00.921Z,74.7
2023-09-16T07:56:00.193Z,74.7
2023-09-16T07:57:00.198Z,74.5
2023-09-16T07:58:00.252Z,75
2023-09-16T07:59:00.203Z,74.2
2023-09-16T08:00:00.202Z,74
2023-09-16T08:01:00.843Z,73.3
2023-09-16T08:02:00.212Z,72.5
2023-09-16T08:03:00.561Z,73.6
2023-09-16T08:04:00.366Z,73.7
2023-09-16T08:05:00.360Z,73
2023-09-16T08:06:00.471Z,73.1
2023-09-16T08:07:00.712Z,72.8
2023-09-16T08:08:00.215Z,71.8
2023-09-16T08:09:00.540Z,71.8
2023-09-16T08:10:00.887Z,72.4
2023-09-16T08:11:59.897Z,71.1
2023-09-16T08:13:00.502Z,70.9
2023-09-16T08:13:59.283Z,71.4
2023-09-16T08:15:00.203Z,71.6
2023-09-16T08:16:00.821Z,70.3
2023-09-16T08:17:00.186Z,72.1
2023-09-16T08:18:00.242Z,68.9
2023-09-16T08:19:00.274Z,70.6
2023-09-16T08:20:00.216Z,70
2023-09-16T08:21:00.194Z,70.5
2023-09-16T08:22:00.321Z,68.7
2023-09-16T08:23:00.247Z,70
2023-09-16T08:24:00.206Z,70.3
2023-09-16T08:25:01.955Z,70
2023-09-16T08:26:00.599Z,70.5
2023-09-16T08:27:00.821Z,70.9
2023-09-16T08:28:00.840Z,69.7
2023-09-16T08:29:00.797Z,69.9
2023-09-16T08:30:00.203Z,68
2023-09-16T08:31:00.406Z,70.5
2023-09-16T08:32:00.505Z,68.2
2023-09-16T08:33:00.381Z,66.1
2023-09-16T08:34:00.635Z,67.8
2023-09-16T08:35:00.764Z,69.5
2023-09-16T08:36:00.199Z,69
2023-09-16T08:37:01.123Z,68.3
2023-09-16T08:38:01.158Z,69.7
2023-09-16T08:39:00.745Z,69.2
2023-09-16T08:40:00.322Z,70.5
2023-09-16T08:41:00.835Z,69.8
2023-09-16T08:41:59.351Z,69.4
2023-09-16T08:43:00.721Z,66.5
2023-09-16T08:44:00.870Z,66.5
2023-09-16T08:45:00.302Z,67.3
2023-09-16T08:46:00.531Z,69.1
2023-09-16T08:47:01.166Z,67.1
2023-09-16T08:48:00.276Z,67.9
2023-09-16T08:50:00.207Z,67.7
2023-09-16T08:51:00.202Z,65.6
2023-09-16T08:52:00.258Z,67.3
2023-09-16T08:53:00.247Z,67.8
2023-09-16T08:54:00.229Z,68.2
2023-09-16T08:55:01.037Z,66.4
2023-09-16T08:56:00.959Z,66.1
2023-09-16T08:57:00.195Z,67.7
2023-09-16T08:58:00.254Z,68.2
2023-09-16T08:59:00.520Z,67.7
2023-09-16T09:00:00.260Z,65.9
2023-09-16T09:01:00.289Z,67.2
2023-09-16T09:02:00.245Z,68.1
2023-09-16T09:03:00.269Z,67.3
2023-09-16T09:04:00.325Z,66.5
2023-09-16T09:05:00.353Z,64.7
2023-09-16T09:06:00.208Z,64.3
2023-09-16T09:07:00.690Z,67.9
2023-09-16T09:08:00.902Z,67.3
2023-09-16T09:09:00.400Z,65.5
2023-09-16T09:10:00.355Z,67.3
2023-09-16T09:11:00.250Z,64.1
2023-09-16T09:13:00.702Z,68.5
2023-09-16T09:18:07.146Z,65.3
2023-09-16T09:19:06.817Z,67.3
2023-09-16T09:19:59.313Z,64.2
2023-09-16T09:21:00.218Z,64.7
2023-09-16T09:22:00.666Z,65.5
2023-09-16T09:23:00.271Z,66.9
2023-09-16T09:24:00.271Z,67.5
2023-09-16T09:24:59.641Z,65.3
2023-09-16T09:26:00.493Z,63.3
2023-09-16T09:27:00.215Z,62.4
2023-09-16T09:28:00.790Z,68.9
2023-09-16T09:30:00.588Z,65.3
2023-09-16T09:31:00.338Z,67.2
2023-09-16T09:32:01.268Z,68
2023-09-16T09:33:01.075Z,69.9
2023-09-16T09:34:00.218Z,67.9
2023-09-16T09:35:00.895Z,67.9
2023-09-16T09:36:00.216Z,68.5
2023-09-16T09:37:00.884Z,66.6
2023-09-16T09:38:00.806Z,68
2023-09-16T09:40:00.361Z,63.6
2023-09-16T09:41:00.662Z,66.7
2023-09-16T09:41:59.887Z,65.8
2023-09-16T09:43:00.315Z,61.6
2023-09-16T09:44:00.498Z,66
2023-09-16T09:46:00.300Z,67.4
2023-09-16T09:47:00.242Z,66.6
2023-09-16T09:49:00.374Z,66.1
2023-09-16T09:50:00.500Z,64.6
2023-09-16T09:51:00.382Z,66.1
2023-09-16T09:52:00.958Z,65.4
2023-09-16T09:53:00.864Z,66.1
2023-09-16T09:54:00.390Z,67.2
2023-09-16T09:55:01.797Z,67.8
2023-09-16T09:56:00.222Z,66.9
2023-09-16T09:57:00.481Z,67.7
2023-09-16T09:58:00.719Z,67
2023-09-16T09:59:00.913Z,61.3
2023-09-16T10:00:00.306Z,67
2023-09-16T10:01:00.300Z,64.6
2023-09-16T10:02:00.279Z,65.3
2023-09-16T10:03:00.323Z,67.9
2023-09-16T10:04:01.129Z,65.8
2023-09-16T10:05:00.250Z,63.8
2023-09-16T10:07:00.710Z,66.6
2023-09-16T10:08:00.615Z,60.4
2023-09-16T10:09:00.225Z,64.2
2023-09-16T10:10:00.369Z,64.3
2023-09-16T10:11:59.306Z,63.7
2023-09-16T10:13:00.286Z,62.9
2023-09-16T10:14:01.097Z,63.2
2023-09-16T10:15:00.962Z,62.5
2023-09-16T10:16:00.351Z,62.8
2023-09-16T10:17:00.420Z,64.9
2023-09-16T10:19:00.367Z,66.7
2023-09-16T10:20:00.240Z,66.3
2023-09-16T10:22:00.237Z,66.2
2023-09-16T10:23:00.748Z,64.4
2023-09-16T10:24:00.520Z,66.3
2023-09-16T10:25:00.265Z,63.3
2023-09-16T10:26:00.247Z,64.3
2023-09-16T10:27:00.311Z,65.5
2023-09-16T10:28:00.295Z,63.5
2023-09-16T10:29:00.244Z,61.4
2023-09-16T10:30:00.771Z,62.9
2023-09-16T10:31:00.326Z,61.1
2023-09-16T10:32:00.310Z,65.4
2023-09-16T10:33:00.316Z,66.4
2023-09-16T10:34:00.338Z,65.8
2023-09-16T10:35:00.666Z,62.1
2023-09-16T10:36:00.370Z,65.5
2023-09-16T10:37:00.283Z,64.2
2023-09-16T10:38:00.237Z,66.1
2023-09-16T10:39:01.177Z,62.9
2023-09-16T10:40:00.324Z,64.6
2023-09-16T10:41:00.259Z,62.8
2023-09-16T10:41:59.316Z,62.3
2023-09-16T10:43:00.419Z,62.8
2023-09-16T10:44:00.261Z,62.7
2023-09-16T10:45:00.300Z,62
2023-09-16T10:46:00.643Z,64
2023-09-16T10:47:00.344Z,64
2023-09-16T10:49:00.280Z,62.2
2023-09-16T10:50:00.514Z,61.8
2023-09-16T10:51:00.761Z,63.5
2023-09-16T10:52:00.865Z,63
2023-09-16T10:53:00.254Z,62.3
2023-09-16T10:54:00.261Z,62
2023-09-16T10:55:00.299Z,61.4
2023-09-16T10:56:00.560Z,60.1
2023-09-16T10:57:00.502Z,59.5
2023-09-16T10:58:00.284Z,58.8
2023-09-16T10:59:00.253Z,59.8
2023-09-16T11:00:00.746Z,59.7
2023-09-16T11:01:00.383Z,57.9
2023-09-16T11:03:00.357Z,62.5
2023-09-16T11:04:00.379Z,63.5
2023-09-16T11:05:00.265Z,64.1
2023-09-16T11:06:00.259Z,63.1
2023-09-16T11:08:00.680Z,62.9
2023-09-16T11:09:00.354Z,63.2
2023-09-16T11:10:00.344Z,62.6
2023-09-16T11:11:00.365Z,63.6
2023-09-16T11:11:59.510Z,63.5
2023-09-16T11:13:00.657Z,62.5
2023-09-16T11:14:00.258Z,62.1
2023-09-16T11:15:00.506Z,60.4
2023-09-16T11:16:00.473Z,62.5
2023-09-16T11:17:01.209Z,60.7
2023-09-16T11:18:00.289Z,60.4
2023-09-16T11:19:00.299Z,59.9
2023-09-16T11:20:00.351Z,61.5
2023-09-16T11:21:00.276Z,61.5
2023-09-16T11:22:00.750Z,63.5
2023-09-16T11:23:00.269Z,64.8
2023-09-16T11:24:00.256Z,63.6
2023-09-16T11:26:00.299Z,64.6
2023-09-16T11:27:01.129Z,63.2
2023-09-16T11:28:00.726Z,61
2023-09-16T11:29:00.488Z,62
2023-09-16T11:30:00.268Z,61.8
2023-09-16T11:31:00.606Z,60.8
2023-09-16T11:32:00.300Z,62.4
2023-09-16T11:33:00.386Z,62.5
2023-09-16T11:34:00.329Z,63.9
2023-09-16T11:35:00.300Z,59.5
2023-09-16T11:36:00.384Z,59.2
2023-09-16T11:37:00.526Z,59.4
2023-09-16T11:38:00.274Z,59.3
2023-09-16T11:39:00.278Z,60.8
2023-09-16T11:40:01.169Z,59.7
2023-09-16T11:41:00.765Z,58.9
2023-09-16T11:43:00.286Z,60.5
2023-09-16T11:44:00.684Z,59.5
2023-09-16T11:45:00.694Z,59.1
2023-09-16T11:46:00.731Z,60.3
2023-09-16T11:47:00.278Z,61.8
2023-09-16T11:48:00.325Z,59.1
2023-09-16T11:49:00.774Z,59.1
2023-09-16T11:50:00.270Z,60.2
2023-09-16T11:51:00.276Z,60.6
2023-09-16T11:52:00.317Z,58.4
2023-09-16T11:53:00.281Z,57.2
2023-09-16T11:54:00.285Z,57.9
2023-09-16T11:54:59.427Z,58.9
2023-09-16T11:56:00.292Z,59.6
2023-09-16T11:57:00.281Z,59.6
2023-09-16T11:58:00.346Z,59.3
2023-09-16T11:59:00.280Z,58.9
2023-09-16T12:00:00.279Z,59.5
2023-09-16T12:01:00.458Z,59.1
2023-09-16T12:02:01.167Z,59.5
2023-09-16T12:03:00.333Z,59.1
2023-09-16T12:04:00.427Z,58.5
2023-09-16T12:05:00.764Z,59.2
2023-09-16T12:06:00.862Z,58.2
2023-09-16T12:07:00.313Z,58.6
2023-09-16T12:08:00.276Z,59.1
2023-09-16T12:09:00.436Z,59.4
2023-09-16T12:10:00.541Z,58.7
2023-09-16T12:11:00.566Z,58.4
2023-09-16T12:11:59.943Z,58.8
2023-09-16T12:13:00.777Z,59.9
2023-09-16T12:14:01.089Z,59.1
2023-09-16T12:15:00.299Z,59.2
2023-09-16T12:16:00.453Z,58.5
2023-09-16T12:17:00.758Z,59
2023-09-16T12:18:00.336Z,59.8
2023-09-16T12:19:01.008Z,59.9
2023-09-16T12:20:00.273Z,59.7
2023-09-16T12:21:00.276Z,59.5
2023-09-16T12:22:00.460Z,59.8
2023-09-16T12:23:00.290Z,61
2023-09-16T12:24:00.623Z,61.8
2023-09-16T12:25:00.940Z,61.6
2023-09-16T12:26:00.384Z,61.3
2023-09-16T12:27:00.309Z,57.5
2023-09-16T12:28:00.348Z,58.2
2023-09-16T12:29:00.287Z,59.2
2023-09-16T12:30:00.340Z,59.5
2023-09-16T12:31:00.385Z,59.1
2023-09-16T12:32:00.381Z,60.2
2023-09-16T12:33:00.350Z,62.2
2023-09-16T12:34:00.413Z,58.1
2023-09-16T12:35:00.797Z,57.3
2023-09-16T12:36:00.984Z,56.6
2023-09-16T12:37:00.595Z,55.9
2023-09-16T12:38:00.329Z,55.6
2023-09-16T12:39:00.694Z,56.7
2023-09-16T12:40:00.928Z,55.9
2023-09-16T12:41:00.942Z,56.9
2023-09-16T12:42:14.928Z,57.8
2023-09-16T12:43:00.597Z,57.3
2023-09-16T12:44:00.423Z,58
2023-09-16T12:45:00.284Z,58.1
2023-09-16T12:46:00.783Z,59.2
2023-09-16T12:47:00.347Z,55.9
2023-09-16T12:48:00.913Z,55.2
2023-09-16T12:49:00.314Z,55.9
2023-09-16T12:50:00.355Z,57.7
2023-09-16T12:51:00.289Z,56
2023-09-16T12:52:01.227Z,57.4
2023-09-16T12:53:00.295Z,58.4
2023-09-16T12:54:00.566Z,58.5
2023-09-16T12:55:01.281Z,59.5
2023-09-16T12:56:00.375Z,58.9
2023-09-16T12:57:00.312Z,57.7
2023-09-16T12:58:00.379Z,58.8
2023-09-16T12:59:00.310Z,57.8
2023-09-16T13:00:00.383Z,58
2023-09-16T13:01:00.898Z,58.4
2023-09-16T13:02:00.408Z,57.6
2023-09-16T13:03:00.351Z,57.5
2023-09-16T13:04:00.309Z,57.4
2023-09-16T13:05:00.295Z,58.7
2023-09-16T13:06:00.307Z,57
2023-09-16T13:07:00.416Z,56.5
2023-09-16T13:08:00.582Z,56.2
2023-09-16T13:09:00.382Z,56
2023-09-16T13:10:00.414Z,55.6
2023-09-16T13:11:00.300Z,56
2023-09-16T13:11:59.382Z,56.8
2023-09-16T13:13:00.331Z,57
2023-09-16T13:14:00.505Z,56.5
2023-09-16T13:15:00.649Z,56.8
2023-09-16T13:16:00.324Z,60
2023-09-16T13:17:00.309Z,58.4
2023-09-16T13:18:00.779Z,57.5
2023-09-16T13:19:01.086Z,56.3
2023-09-16T13:20:00.334Z,56.3
2023-09-16T13:21:01.001Z,57.2
2023-09-16T13:22:00.347Z,57.8
2023-09-16T13:23:00.566Z,58.7
2023-09-16T13:24:00.337Z,59
2023-09-16T13:25:00.383Z,57.2
2023-09-16T13:26:01.126Z,56.8
2023-09-16T13:27:00.319Z,57.8
2023-09-16T13:28:00.318Z,58.4
2023-09-16T13:29:00.329Z,58.8
2023-09-16T13:30:00.393Z,56.1
2023-09-16T13:31:00.963Z,55.8
2023-09-16T13:32:02.584Z,56
2023-09-16T13:33:00.344Z,57.4
2023-09-16T13:34:00.347Z,56
2023-09-16T13:35:00.316Z,55.6
2023-09-16T13:36:00.560Z,54
2023-09-16T13:37:00.357Z,54.9
2023-09-16T13:38:00.860Z,55
2023-09-16T13:39:00.323Z,55.2
2023-09-16T13:40:00.559Z,54.9
2023-09-16T13:41:00.346Z,54.7
2023-09-16T13:41:59.408Z,55.5
2023-09-16T13:43:00.366Z,55.2
2023-09-16T13:44:00.622Z,54.9
2023-09-16T13:45:00.447Z,54.6
2023-09-16T13:46:00.600Z,55.3
2023-09-16T13:47:00.464Z,54.3
2023-09-16T13:48:00.350Z,54.3
2023-09-16T13:49:00.786Z,53.3
2023-09-16T13:50:00.320Z,54.5
2023-09-16T13:51:00.314Z,55.2
2023-09-16T13:52:01.112Z,55.9
2023-09-16T13:53:00.310Z,57.6
2023-09-16T13:54:00.712Z,58.2
2023-09-16T13:55:00.797Z,58.1
2023-09-16T13:56:00.843Z,57.7
2023-09-16T13:57:00.316Z,59.1
2023-09-16T13:58:00.339Z,55.9
2023-09-16T13:59:00.328Z,55.7
2023-09-16T14:00:00.369Z,56.6
2023-09-16T14:02:01.039Z,55
2023-09-16T14:03:00.363Z,54
2023-09-16T14:04:00.353Z,53.7
2023-09-16T14:05:00.338Z,54
2023-09-16T14:06:00.517Z,54.2
2023-09-16T14:07:00.351Z,53.9
2023-09-16T14:08:00.360Z,53.6
2023-09-16T14:09:00.321Z,53.4
2023-09-16T14:10:00.411Z,54.5
2023-09-16T14:11:00.334Z,54.7
2023-09-16T14:11:59.738Z,56.4
2023-09-16T14:13:00.345Z,57.1
2023-09-16T14:15:00.774Z,54.5
2023-09-16T14:16:00.441Z,55.2
2023-09-16T14:17:01.154Z,55.9
2023-09-16T14:18:00.373Z,54.9
2023-09-16T14:19:00.744Z,54.2
2023-09-16T14:20:00.340Z,54.1
2023-09-16T14:21:00.918Z,54.7
2023-09-16T14:22:01.050Z,55.4